createdAt,value
2019-05-05T00:02:28.060Z,4.97
2019-05-05T00:04:58.904Z,5.37
2019-05-05T00:07:29.991Z,5.67
2019-05-05T00:09:59.164Z,5.30
2019-05-05T00:12:38.903Z,5.17
2019-05-05T00:15:25.637Z,5.60
2019-05-05T00:17:55.188Z,5.85
2019-05-05T00:20:25.087Z,5.15
2019-05-05T00:22:54.644Z,5.10
2019-05-05T00:25:24.943Z,5.17
2019-05-05T00:27:54.647Z,5.40
2019-05-05T00:30:24.960Z,4.97
2019-05-05T00:32:54.822Z,4.83
2019-05-05T00:35:25.219Z,5.10
2019-05-05T00:37:54.779Z,5.05
2019-05-05T00:40:24.871Z,4.70
2019-05-05T00:42:54.761Z,4.35
2019-05-05T00:45:25.300Z,5.00
2019-05-05T00:47:56.358Z,4.80
2019-05-05T00:50:25.503Z,4.95
2019-05-05T00:52:55.163Z,4.58
2019-05-05T00:55:24.515Z,5.15
2019-05-05T00:57:54.792Z,4.37
2019-05-05T01:00:32.202Z,4.72
2019-05-05T01:03:01.337Z,4.37
2019-05-05T01:05:38.066Z,4.80
2019-05-05T01:08:08.880Z,4.70
2019-05-05T01:10:38.166Z,4.05
2019-05-05T01:13:07.300Z,4.47
2019-05-05T01:15:37.041Z,4.78
2019-05-05T01:18:06.377Z,4.80
2019-05-05T01:20:35.546Z,4.65
2019-05-05T01:23:04.743Z,4.42
2019-05-05T01:25:34.742Z,4.58
2019-05-05T01:28:05.028Z,4.90
2019-05-05T01:30:35.947Z,4.75
2019-05-05T01:33:06.768Z,4.55
2019-05-05T01:35:36.016Z,4.80
2019-05-05T01:38:24.798Z,4.87
2019-05-05T01:41:14.742Z,4.47
2019-05-05T01:43:45.189Z,4.78
2019-05-05T01:46:14.784Z,4.60
2019-05-05T01:48:44.500Z,4.30
2019-05-05T01:51:14.407Z,4.65
2019-05-05T01:53:44.388Z,4.65
2019-05-05T01:56:15.408Z,4.25
2019-05-05T01:58:44.474Z,4.45
2019-05-05T02:01:15.283Z,4.75
2019-05-05T02:03:44.748Z,4.33
2019-05-05T02:06:14.302Z,4.15
2019-05-05T02:08:45.423Z,4.58
2019-05-05T02:11:15.592Z,4.17
2019-05-05T02:13:45.153Z,3.80
2019-05-05T02:16:15.080Z,3.85
2019-05-05T02:18:45.041Z,3.60
2019-05-05T02:21:14.391Z,4.15
2019-05-05T02:23:45.303Z,4.00
2019-05-05T02:26:15.265Z,3.90
2019-05-05T02:28:46.398Z,3.75
2019-05-05T02:31:36.066Z,4.00
2019-05-05T02:34:05.450Z,3.80
2019-05-05T02:36:35.624Z,3.50
2019-05-05T02:39:06.592Z,3.70
2019-05-05T02:41:35.725Z,3.83
2019-05-05T02:44:05.267Z,3.90
2019-05-05T02:46:36.197Z,3.90
2019-05-05T02:49:05.720Z,3.95
2019-05-05T02:51:35.621Z,3.80
2019-05-05T02:54:05.109Z,3.67
2019-05-05T02:56:39.614Z,3.52
2019-05-05T02:59:10.431Z,3.60
2019-05-05T03:01:46.956Z,3.40
2019-05-05T03:04:16.092Z,3.65
2019-05-05T03:06:49.183Z,3.52
2019-05-05T03:09:18.348Z,3.58
2019-05-05T03:11:48.368Z,3.42
2019-05-05T03:14:17.536Z,3.08
2019-05-05T03:16:46.711Z,3.30
2019-05-05T03:19:15.893Z,3.08
2019-05-05T03:21:45.032Z,3.47
2019-05-05T03:24:14.470Z,3.02
2019-05-05T03:26:44.436Z,3.10
2019-05-05T03:29:18.043Z,3.35
2019-05-05T03:31:48.062Z,3.02
2019-05-05T03:34:17.898Z,3.25
2019-05-05T03:36:47.391Z,3.30
2019-05-05T03:39:23.453Z,3.25
2019-05-05T03:41:57.175Z,3.00
2019-05-05T03:44:28.005Z,3.30
2019-05-05T03:46:57.176Z,3.40
2019-05-05T03:49:26.381Z,3.15
2019-05-05T03:51:55.820Z,2.70
2019-05-05T03:54:24.997Z,2.80
2019-05-05T03:57:09.155Z,3.10
2019-05-05T03:59:39.991Z,3.22
2019-05-05T04:02:10.814Z,2.75
2019-05-05T04:04:50.556Z,3.08
2019-05-05T04:07:19.693Z,3.20
2019-05-05T04:09:48.837Z,3.10
2019-05-05T04:12:18.008Z,2.87
2019-05-05T04:14:47.217Z,3.10
2019-05-05T04:17:21.008Z,3.15
2019-05-05T04:19:57.988Z,2.77
2019-05-05T04:22:27.157Z,3.10
2019-05-05T04:24:56.328Z,3.00
2019-05-05T04:27:25.524Z,2.90
2019-05-05T04:29:54.709Z,2.83
2019-05-05T04:32:24.511Z,2.87
2019-05-05T04:34:54.392Z,3.40
2019-05-05T04:37:24.056Z,2.62
2019-05-05T04:39:53.861Z,2.72
2019-05-05T04:42:24.537Z,2.52
2019-05-05T04:44:53.994Z,2.45
2019-05-05T04:47:31.243Z,2.65
2019-05-05T04:50:10.937Z,2.55
2019-05-05T04:52:40.125Z,2.47
2019-05-05T04:55:09.365Z,2.42
2019-05-05T04:57:38.507Z,2.58
2019-05-05T05:00:07.644Z,2.60
2019-05-05T05:02:44.451Z,2.52
2019-05-05T05:05:15.266Z,2.40
2019-05-05T05:07:44.436Z,2.40
2019-05-05T05:10:13.959Z,2.30
2019-05-05T05:12:43.710Z,2.60
2019-05-05T05:15:14.612Z,2.30
2019-05-05T05:17:53.400Z,2.08
2019-05-05T05:20:24.536Z,2.40
2019-05-05T05:22:54.444Z,2.25
2019-05-05T05:25:24.045Z,2.20
2019-05-05T05:27:53.707Z,2.60
2019-05-05T05:30:24.254Z,2.20
2019-05-05T05:32:53.987Z,2.30
2019-05-05T05:35:24.531Z,2.15
2019-05-05T05:37:57.354Z,2.65
2019-05-05T05:40:29.105Z,2.30
2019-05-05T05:42:59.917Z,2.30
2019-05-05T05:45:46.786Z,2.20
2019-05-05T05:48:34.189Z,2.20
2019-05-05T05:51:05.159Z,2.30
2019-05-05T05:53:34.989Z,2.47
2019-05-05T05:56:04.497Z,2.25
2019-05-05T05:58:33.813Z,2.25
2019-05-05T06:01:04.306Z,2.50
2019-05-05T06:03:34.116Z,2.10
2019-05-05T06:06:04.748Z,2.10
2019-05-05T06:08:34.657Z,2.02
2019-05-05T06:11:04.519Z,2.10
2019-05-05T06:13:33.874Z,2.30
2019-05-05T06:16:04.255Z,2.17
2019-05-05T06:18:34.536Z,2.22
2019-05-05T06:21:04.633Z,2.10
2019-05-05T06:23:34.464Z,2.00
2019-05-05T06:26:06.985Z,1.95
2019-05-05T06:28:34.690Z,1.92
2019-05-05T06:31:04.775Z,2.20
2019-05-05T06:33:34.862Z,1.90
2019-05-05T06:36:04.073Z,2.10
2019-05-05T06:38:34.573Z,2.00
2019-05-05T06:41:08.535Z,1.87
2019-05-05T06:43:39.319Z,2.17
2019-05-05T06:46:10.140Z,1.82
2019-05-05T06:48:39.313Z,1.92
2019-05-05T06:51:08.493Z,1.80
2019-05-05T06:53:37.686Z,2.20
2019-05-05T06:56:06.865Z,1.85
2019-05-05T06:58:36.969Z,1.98
2019-05-05T07:01:06.113Z,1.80
2019-05-05T07:03:35.331Z,1.70
2019-05-05T07:06:04.622Z,1.80
2019-05-05T07:08:34.686Z,1.70
2019-05-05T07:11:04.319Z,2.10
2019-05-05T07:13:34.004Z,1.90
2019-05-05T07:16:04.802Z,1.72
2019-05-05T07:18:34.334Z,1.92
2019-05-05T07:21:03.908Z,1.95
2019-05-05T07:23:34.106Z,2.00
2019-05-05T07:26:04.319Z,1.72
2019-05-05T07:28:34.323Z,2.00
2019-05-05T07:31:04.411Z,2.02
2019-05-05T07:33:34.609Z,1.98
2019-05-05T07:36:21.824Z,1.70
2019-05-05T07:38:51.016Z,1.60
2019-05-05T07:41:20.159Z,2.00
2019-05-05T07:43:49.342Z,1.67
2019-05-05T07:46:18.515Z,2.00
2019-05-05T07:48:47.648Z,1.90
2019-05-05T07:51:16.786Z,2.02
2019-05-05T07:53:45.970Z,2.02
2019-05-05T07:56:15.167Z,2.05
2019-05-05T07:58:44.352Z,1.60
2019-05-05T08:01:14.111Z,1.55
2019-05-05T08:03:44.621Z,1.80
2019-05-05T08:06:14.663Z,1.80
2019-05-05T08:08:44.438Z,1.80
2019-05-05T08:11:14.673Z,1.95
2019-05-05T08:13:44.497Z,2.10
2019-05-05T08:16:24.951Z,2.12
2019-05-05T08:18:55.806Z,2.33
2019-05-05T08:21:24.990Z,2.00
2019-05-05T08:23:58.458Z,1.98
2019-05-05T08:26:29.274Z,2.00
2019-05-05T08:29:00.139Z,2.30
2019-05-05T08:31:46.914Z,2.20
2019-05-05T08:34:16.136Z,2.00
2019-05-05T08:36:45.277Z,1.98
2019-05-05T08:39:14.420Z,1.82
2019-05-05T08:41:45.386Z,1.95
2019-05-05T08:44:17.893Z,2.20
2019-05-05T08:46:45.406Z,1.90
2019-05-05T08:49:14.583Z,2.27
2019-05-05T08:51:44.333Z,2.15
2019-05-05T08:54:14.308Z,2.10
2019-05-05T08:56:44.744Z,2.10
2019-05-05T08:59:14.517Z,1.90
2019-05-05T09:01:44.926Z,2.02
2019-05-05T09:04:14.454Z,2.00
2019-05-05T09:06:43.907Z,2.70
2019-05-05T09:09:14.437Z,2.00
2019-05-05T09:11:44.014Z,2.30
2019-05-05T09:14:14.921Z,2.22
2019-05-05T09:16:44.897Z,2.00
2019-05-05T09:19:15.836Z,2.20
2019-05-05T09:21:45.084Z,2.62
2019-05-05T09:24:31.224Z,2.12
2019-05-05T09:27:17.309Z,2.12
2019-05-05T09:29:46.791Z,2.60
2019-05-05T09:32:15.925Z,2.60
2019-05-05T09:34:45.067Z,2.60
2019-05-05T09:37:14.495Z,2.15
2019-05-05T09:39:43.935Z,2.77
2019-05-05T09:42:14.572Z,2.70
2019-05-05T09:44:44.062Z,2.12
2019-05-05T09:47:13.815Z,2.20
2019-05-05T09:49:44.555Z,2.20
2019-05-05T09:52:14.225Z,2.60
2019-05-05T09:54:43.988Z,2.55
2019-05-05T09:57:14.502Z,1.90
2019-05-05T09:59:44.327Z,2.40
2019-05-05T10:02:13.833Z,1.90
2019-05-05T10:04:44.127Z,2.10
2019-05-05T10:07:13.889Z,2.02
2019-05-05T10:09:43.824Z,2.10
2019-05-05T10:12:13.123Z,2.05
2019-05-05T10:14:44.743Z,2.10
2019-05-05T10:17:14.078Z,1.95
2019-05-05T10:19:44.044Z,2.30
2019-05-05T10:22:14.823Z,2.00
2019-05-05T10:24:45.876Z,2.42
2019-05-05T10:27:15.066Z,2.10
2019-05-05T10:29:44.300Z,2.00
2019-05-05T10:32:13.865Z,1.80
2019-05-05T10:34:44.905Z,1.85
2019-05-05T10:37:14.322Z,2.30
2019-05-05T10:39:48.095Z,2.08
2019-05-05T10:42:17.268Z,2.02
2019-05-05T10:44:46.480Z,1.90
2019-05-05T10:47:15.648Z,2.00
2019-05-05T10:49:44.780Z,1.80
2019-05-05T10:52:14.327Z,2.20
2019-05-05T10:54:44.789Z,2.40
2019-05-05T10:57:16.621Z,2.62
2019-05-05T10:59:45.191Z,1.77
2019-05-05T11:02:14.367Z,2.52
2019-05-05T11:04:44.178Z,2.50
2019-05-05T11:07:14.605Z,2.20
2019-05-05T11:09:44.505Z,2.42
2019-05-05T11:12:14.420Z,2.12
2019-05-05T11:14:44.387Z,2.15
2019-05-05T11:17:14.416Z,2.45
2019-05-05T11:19:44.213Z,2.25
2019-05-05T11:22:14.643Z,2.40
2019-05-05T11:24:55.202Z,2.30
2019-05-05T11:27:14.856Z,2.22
2019-05-05T11:30:03.800Z,1.90
2019-05-05T11:32:50.569Z,1.92
2019-05-05T11:35:21.345Z,2.10
2019-05-05T11:37:50.485Z,2.33
2019-05-05T11:40:21.291Z,2.33
2019-05-05T11:42:50.435Z,2.00
2019-05-05T11:45:19.577Z,2.08
2019-05-05T11:47:48.724Z,2.35
2019-05-05T11:50:17.856Z,2.20
2019-05-05T11:52:47.005Z,2.65
2019-05-05T11:55:16.167Z,2.55
2019-05-05T11:57:45.288Z,2.50
2019-05-05T12:00:14.442Z,2.37
2019-05-05T12:02:44.004Z,2.50
2019-05-05T12:05:14.070Z,2.50
2019-05-05T12:07:43.752Z,2.42
2019-05-05T12:10:29.808Z,2.10
2019-05-05T12:13:00.589Z,2.60
2019-05-05T12:15:29.716Z,3.08
2019-05-05T12:17:58.869Z,2.65
2019-05-05T12:20:39.912Z,3.22
2019-05-05T12:23:09.048Z,2.87
2019-05-05T12:25:56.634Z,3.10
2019-05-05T12:28:24.494Z,2.92
2019-05-05T12:30:58.658Z,2.67
2019-05-05T12:33:27.885Z,3.00
2019-05-05T12:35:57.200Z,3.00
2019-05-05T12:38:26.330Z,3.15
2019-05-05T12:40:55.501Z,3.20
2019-05-05T12:43:24.772Z,3.00
2019-05-05T12:46:10.524Z,3.08
2019-05-05T12:48:41.295Z,3.00
2019-05-05T12:51:10.425Z,2.90
2019-05-05T12:53:39.563Z,3.35
2019-05-05T12:56:08.699Z,3.12
2019-05-05T12:58:37.851Z,3.00
2019-05-05T13:01:11.548Z,3.08
2019-05-05T13:03:40.716Z,3.05
2019-05-05T13:06:09.844Z,3.15
2019-05-05T13:08:38.979Z,3.27
2019-05-05T13:11:08.120Z,3.65
2019-05-05T13:13:37.243Z,3.10
2019-05-05T13:16:06.388Z,2.92
2019-05-05T13:18:35.515Z,3.22
2019-05-05T13:21:23.975Z,2.80
2019-05-05T13:24:04.470Z,3.50
2019-05-05T13:26:41.228Z,3.22
2019-05-05T13:29:10.422Z,2.98
2019-05-05T13:31:39.554Z,3.35
2019-05-05T13:34:08.683Z,3.17
2019-05-05T13:36:37.899Z,3.00
2019-05-05T13:39:08.664Z,3.40
2019-05-05T13:41:37.812Z,3.17
2019-05-05T13:44:08.595Z,3.15
2019-05-05T13:46:39.312Z,3.40
2019-05-05T13:49:23.938Z,3.50
2019-05-05T13:51:54.045Z,3.15
2019-05-05T13:54:24.230Z,3.10
2019-05-05T13:56:53.618Z,3.10
2019-05-05T13:59:22.765Z,3.30
2019-05-05T14:01:53.871Z,2.95
2019-05-05T14:04:22.794Z,3.10
2019-05-05T14:06:51.922Z,3.10
2019-05-05T14:09:21.061Z,3.00
2019-05-05T14:11:50.228Z,3.00
2019-05-05T14:14:19.369Z,3.17
2019-05-05T14:16:48.505Z,3.55
2019-05-05T14:19:17.656Z,9.18
2019-05-05T14:21:46.835Z,12.53
2019-05-05T14:24:17.680Z,10.93
2019-05-05T14:26:46.819Z,8.90
2019-05-05T14:29:35.805Z,8.90
2019-05-05T14:32:06.644Z,8.05
2019-05-05T14:34:37.431Z,8.30
2019-05-05T14:37:24.879Z,7.42
2019-05-05T14:39:54.606Z,7.45
2019-05-05T14:42:23.739Z,6.85
2019-05-05T14:44:54.550Z,7.15
2019-05-05T14:47:24.503Z,6.22
2019-05-05T14:49:54.312Z,6.50
2019-05-05T14:52:24.584Z,5.50
2019-05-05T14:54:54.494Z,5.35
2019-05-05T14:57:29.672Z,5.00
2019-05-05T14:59:58.828Z,6.00
2019-05-05T15:02:27.965Z,4.62
2019-05-05T15:04:58.752Z,5.30
2019-05-05T15:07:45.631Z,5.70
2019-05-05T15:10:23.997Z,5.10
2019-05-05T15:12:54.640Z,4.60
2019-05-05T15:15:23.783Z,5.10
2019-05-05T15:17:53.705Z,4.78
2019-05-05T15:20:24.504Z,5.25
2019-05-05T15:22:54.490Z,4.40
2019-05-05T15:25:23.914Z,4.95
2019-05-05T15:27:54.193Z,4.95
2019-05-05T15:30:26.613Z,4.50
2019-05-05T15:32:54.331Z,4.40
2019-05-05T15:35:23.494Z,4.72
2019-05-05T15:37:54.147Z,5.35
2019-05-05T15:40:24.756Z,4.55
2019-05-05T15:42:54.440Z,4.33
2019-05-05T15:45:23.912Z,4.12
2019-05-05T15:47:54.044Z,3.95
2019-05-05T15:50:23.421Z,4.42
2019-05-05T15:52:54.337Z,4.42
2019-05-05T15:55:24.528Z,4.37
2019-05-05T15:57:54.043Z,3.77
2019-05-05T16:00:23.188Z,4.50
2019-05-05T16:02:54.721Z,4.42
2019-05-05T16:05:24.252Z,4.05
2019-05-05T16:07:54.276Z,4.12
2019-05-05T16:10:25.215Z,3.90
2019-05-05T16:12:54.490Z,4.35
2019-05-05T16:15:25.276Z,4.17
2019-05-05T16:18:01.747Z,4.05
2019-05-05T16:20:35.933Z,4.25
2019-05-05T16:23:09.678Z,3.98
2019-05-05T16:25:38.831Z,4.17
2019-05-05T16:28:07.988Z,4.05
2019-05-05T16:30:37.109Z,4.08
2019-05-05T16:33:06.267Z,4.10
2019-05-05T16:35:35.415Z,4.03
2019-05-05T16:38:06.539Z,4.30
2019-05-05T16:40:35.425Z,4.40
2019-05-05T16:43:04.761Z,5.67
2019-05-05T16:45:34.140Z,19.95
2019-05-05T16:48:03.892Z,23.52
2019-05-05T16:50:34.081Z,27.17
2019-05-05T16:53:07.419Z,29.82
2019-05-05T16:55:40.940Z,34.18
2019-05-05T16:58:10.087Z,42.50
2019-05-05T17:00:39.228Z,44.13
2019-05-05T17:03:08.428Z,47.90
2019-05-05T17:05:37.569Z,48.60
2019-05-05T17:08:06.704Z,49.73
2019-05-05T17:10:35.848Z,51.40
2019-05-05T17:13:13.646Z,51.35
2019-05-05T17:18:36.099Z,55.08
2019-05-05T17:21:09.044Z,53.15
2019-05-05T17:23:38.188Z,52.35
2019-05-05T17:26:07.329Z,50.25
2019-05-05T17:28:36.482Z,46.85
2019-05-05T17:31:05.623Z,42.98
2019-05-05T17:33:34.782Z,40.38
2019-05-05T17:36:04.623Z,39.63
2019-05-05T17:38:34.297Z,38.48
2019-05-05T17:41:05.120Z,34.98
2019-05-05T17:43:44.860Z,34.92
2019-05-05T17:46:21.719Z,31.73
2019-05-05T17:48:54.978Z,30.00
2019-05-05T17:51:25.758Z,29.12
2019-05-05T17:54:12.810Z,28.55
2019-05-05T17:56:41.944Z,26.77
2019-05-05T17:59:11.126Z,25.30
2019-05-05T18:01:40.267Z,24.50
2019-05-05T18:04:09.395Z,23.90
2019-05-05T18:06:44.028Z,24.70
2019-05-05T18:09:15.093Z,24.77
2019-05-05T18:11:46.154Z,24.23
2019-05-05T18:14:20.034Z,23.15
2019-05-05T18:16:49.171Z,23.18
2019-05-05T18:19:18.311Z,22.95
2019-05-05T18:21:47.497Z,22.02
2019-05-05T18:24:16.657Z,23.18
2019-05-05T18:26:45.805Z,22.95
2019-05-05T18:29:14.944Z,22.07
2019-05-05T18:31:44.094Z,22.00
2019-05-05T18:34:13.517Z,22.05
2019-05-05T18:36:44.589Z,21.07
2019-05-05T18:39:13.786Z,20.40
2019-05-05T18:42:01.210Z,20.25
2019-05-05T18:44:34.761Z,20.45
2019-05-05T18:47:18.137Z,19.48
2019-05-05T18:49:45.824Z,19.80
2019-05-05T18:52:15.062Z,18.80
2019-05-05T18:54:44.206Z,17.73
2019-05-05T18:57:13.377Z,18.27
2019-05-05T18:59:44.497Z,18.70
2019-05-05T19:02:21.173Z,17.52
2019-05-05T19:05:08.356Z,16.67
2019-05-05T19:07:40.257Z,16.97
2019-05-05T19:10:10.076Z,16.80
2019-05-05T19:12:39.414Z,16.75
2019-05-05T19:15:08.696Z,16.12
2019-05-05T19:17:37.914Z,16.35
2019-05-05T19:20:11.923Z,15.90
2019-05-05T19:22:41.176Z,15.15
2019-05-05T19:25:16.356Z,15.08
2019-05-05T19:27:46.545Z,15.50
2019-05-05T19:30:17.134Z,16.02
2019-05-05T19:32:46.285Z,15.23
2019-05-05T19:35:15.545Z,15.05
2019-05-05T19:37:44.760Z,14.07
2019-05-05T19:40:14.454Z,14.10
2019-05-05T19:42:46.024Z,14.95
2019-05-05T19:45:14.494Z,14.70
2019-05-05T19:47:44.094Z,14.50
2019-05-05T19:50:30.771Z,13.88
2019-05-05T19:52:59.948Z,14.93
2019-05-05T19:55:29.099Z,14.00
2019-05-05T19:57:58.242Z,10.20
2019-05-05T20:00:27.592Z,9.20
2019-05-05T20:03:04.478Z,9.38
2019-05-05T20:05:27.612Z,9.33
2019-05-05T20:07:56.751Z,8.60
2019-05-05T20:10:25.888Z,7.87
2019-05-05T20:12:55.076Z,11.00
2019-05-05T20:15:25.859Z,9.28
2019-05-05T20:17:55.003Z,9.83
2019-05-05T20:20:24.183Z,9.70
2019-05-05T20:22:54.811Z,9.50
2019-05-05T20:25:24.469Z,9.00
2019-05-05T20:27:55.781Z,10.40
2019-05-05T20:30:24.762Z,9.68
2019-05-05T20:32:56.447Z,9.78
2019-05-05T20:35:27.481Z,8.80
2019-05-05T20:38:01.440Z,9.53
2019-05-05T20:40:32.212Z,8.90
2019-05-05T20:43:03.851Z,9.23
2019-05-05T20:45:34.684Z,8.93
2019-05-05T20:48:04.574Z,8.73
2019-05-05T20:50:34.388Z,9.10
2019-05-05T20:53:04.867Z,9.10
2019-05-05T20:55:34.348Z,8.33
2019-05-05T20:58:04.673Z,8.98
2019-05-05T21:00:34.765Z,8.20
2019-05-05T21:03:04.905Z,8.63
2019-05-05T21:05:34.858Z,7.92
2019-05-05T21:08:04.949Z,8.30
2019-05-05T21:10:34.890Z,7.78
2019-05-05T21:13:04.344Z,8.23
2019-05-05T21:15:34.212Z,8.05
2019-05-05T21:18:04.922Z,8.68
2019-05-05T21:20:34.773Z,7.60
2019-05-05T21:23:14.961Z,7.95
2019-05-05T21:25:51.496Z,7.37
2019-05-05T21:28:20.637Z,7.72
2019-05-05T21:30:49.809Z,7.10
2019-05-05T21:33:18.940Z,7.53
2019-05-05T21:35:48.081Z,7.78
2019-05-05T21:38:17.243Z,7.33
2019-05-05T21:40:46.379Z,7.17
2019-05-05T21:43:15.549Z,7.12
2019-05-05T21:45:44.706Z,6.87
2019-05-05T21:48:13.846Z,7.58
2019-05-05T21:50:44.626Z,6.75
2019-05-05T21:53:18.429Z,7.30
2019-05-05T21:56:05.697Z,6.75
2019-05-05T21:58:36.560Z,7.87
2019-05-05T22:01:10.728Z,7.45
2019-05-05T22:03:40.142Z,7.20
2019-05-05T22:06:09.346Z,7.05
2019-05-05T22:08:38.484Z,7.80
2019-05-05T22:11:07.630Z,7.45
2019-05-05T22:13:36.801Z,7.65
2019-05-05T22:16:05.942Z,7.30
2019-05-05T22:18:35.080Z,7.55
2019-05-05T22:21:08.921Z,7.95
2019-05-05T22:23:38.065Z,7.30
2019-05-05T22:26:07.207Z,7.42
2019-05-05T22:28:36.338Z,7.15
2019-05-05T22:31:05.473Z,7.30
2019-05-05T22:33:34.621Z,7.22
2019-05-05T22:36:04.393Z,8.25
2019-05-05T22:38:34.651Z,7.55
2019-05-05T22:41:03.793Z,7.72
2019-05-05T22:43:34.659Z,7.10
2019-05-05T22:46:03.796Z,7.30
2019-05-05T22:48:34.490Z,7.60
2019-05-05T22:51:03.956Z,7.83
2019-05-05T22:53:34.701Z,7.35
2019-05-05T22:56:04.146Z,6.83
2019-05-05T22:58:34.872Z,7.47
2019-05-05T23:01:04.544Z,7.53
2019-05-05T23:03:35.317Z,7.83
2019-05-05T23:06:06.101Z,7.28
2019-05-05T23:08:35.284Z,7.62
2019-05-05T23:11:04.421Z,7.40
2019-05-05T23:13:33.807Z,7.00
2019-05-05T23:16:10.702Z,7.12
2019-05-05T23:18:39.828Z,7.60
2019-05-05T23:21:16.470Z,7.62
2019-05-05T23:23:47.247Z,6.92
2019-05-05T23:26:29.900Z,7.62
2019-05-05T23:28:59.022Z,7.05
2019-05-05T23:31:28.183Z,6.67
2019-05-05T23:33:57.319Z,7.08
2019-05-05T23:36:26.441Z,6.83
2019-05-05T23:38:55.638Z,6.45
2019-05-05T23:41:24.767Z,6.80
2019-05-05T23:43:54.520Z,7.05
2019-05-05T23:46:24.309Z,6.08
2019-05-05T23:48:53.852Z,6.53
2019-05-05T23:51:24.241Z,6.53
2019-05-05T23:53:55.013Z,6.67
2019-05-05T23:56:24.373Z,6.58
2019-05-05T23:58:55.019Z,6.67
